Beecher, Illinois
Current Conditions -  °F | °C
As of 6:55 AM on Wednesday 26 Nov 2014 (Local Time) from KIGQ Reporting Station
Overcast Overcast  
Wind Chill: 17°   Ceiling: 1400
Heat Index: 24°   Visibility: 10mi
Dew Point: 19°   Wind: 6mph
Humidity: 82%   Direction: 140°SE
Pressure: 30.17"   Gusts: NA
Location:  41.34°N, 87.62°W
Report Text: KIGQ 261255Z AUTO 14005KT 10SM OVC014 M05/M07 A3017 RMK AO2 T10461073
Loading
Personal Weather Stations






























Interactive Weather Map New forecast layout! Learn more

10-Day Weather Forecast

Advertisements
Track Severe Weather on mobile